Terminal Aerodrome Forecast
Issued by NWS Sterling, VA

Current Version | Previous Version | Text Only | Print | Product List | Glossary Off
Versions: 1 2 3 4 5 6 7 8 9 10 11 12 13 14 15 16 17 18 19 20 21

000
FTUS41 KLWX 262329
TAFMRB
TAF
KMRB 262329Z 2700/2724 26012KT P6SM BKN080
     FM270400 01009KT P6SM BKN045
     FM270600 02008KT P6SM BKN015
     FM270800 01009KT P6SM OVC025
     FM272100 11006KT P6SM BKN050=

USA.gov is the U.S. government's official web portal to all federal, state and local government web resources and services.